Time;durP1;ratioP1;P1;durP2;ratioP2;P2;SDS_P1;SDS_P2;PMS_P1;PMS_P2;Temp;Humidity;BMP_temperature;BMP_pressure;BME280_temperature;BME280_humidity;BME280_pressure;Samples;Min_cycle;Max_cycle;Signal;HPM_P1;HPM_P2
2023/03/24 00:00:46;;;;;;;0.30;0.30;;;;;;;18.68;66.60;99825.09;5045932;28;20041;-71
2023/03/24 00:03:11;;;;;;;0.30;0.30;;;;;;;17.95;70.02;99825.06;5037955;28;20033;-70
2023/03/24 00:05:37;;;;;;;0.20;0.20;;;;;;;18.45;67.01;99829.63;5046937;28;20036;-70
2023/03/24 00:08:03;;;;;;;0.10;0.10;;;;;;;17.78;69.14;99806.59;5040969;28;20025;-70
2023/03/24 00:10:33;;;;;;;0.25;0.25;;;;;;;18.34;67.88;99818.09;5046800;28;20021;-70
2023/03/24 00:12:59;;;;;;;0.20;0.20;;;;;;;17.66;70.71;99810.88;5054375;28;20455;-70
2023/03/24 00:15:25;;;;;;;0.10;0.10;;;;;;;18.11;68.74;99810.09;5056073;28;20025;-71
2023/03/24 00:17:51;;;;;;;0.20;0.20;;;;;;;18.01;69.12;99800.22;5052843;28;20037;-71
2023/03/24 00:20:34;;;;;;;0.20;0.20;;;;;;;18.10;69.79;99800.34;5057788;28;20098;-71
2023/03/24 00:23:00;;;;;;;0.15;0.15;;;;;;;18.79;66.50;99804.72;5050732;28;20118;-71
2023/03/24 00:25:28;;;;;;;0.20;0.20;;;;;;;18.39;67.36;99792.72;5057609;28;20052;-70
2023/03/24 00:27:56;;;;;;;0.20;0.20;;;;;;;18.41;67.57;99782.34;5055019;28;20109;-70
2023/03/24 00:30:23;;;;;;;0.20;0.20;;;;;;;18.39;67.27;99785.38;5048594;28;20036;-70
2023/03/24 00:32:48;;;;;;;0.17;0.17;;;;;;;17.93;68.37;99781.88;5055174;28;20500;-69
2023/03/24 00:35:16;;;;;;;0.20;0.20;;;;;;;18.24;67.43;99774.75;5050596;28;20037;-69
2023/03/24 00:37:43;;;;;;;0.20;0.20;;;;;;;18.20;68.81;99781.91;5053579;28;20031;-70
2023/03/24 00:40:12;;;;;;;0.25;0.25;;;;;;;17.72;69.62;99767.03;5052726;28;20037;-70
2023/03/24 00:42:40;;;;;;;0.17;0.17;;;;;;;17.64;71.49;99764.19;5049363;28;20093;-70
2023/03/24 00:45:10;;;;;;;0.20;0.20;;;;;;;17.88;70.05;99760.22;5051872;28;20417;-71
2023/03/24 00:47:36;;;;;;;0.10;0.10;;;;;;;18.72;67.31;99761.59;5035411;28;20133;-70
2023/03/24 00:50:10;;;;;;;0.20;0.20;;;;;;;18.59;67.77;99750.72;5036055;28;20037;-70
2023/03/24 00:52:35;;;;;;;0.10;0.10;;;;;;;18.48;67.88;99749.28;5036837;28;20056;-70
2023/03/24 00:55:03;;;;;;;0.10;0.10;;;;;;;17.72;70.62;99739.03;5048578;28;20029;-70
2023/03/24 00:57:33;;;;;;;0.20;0.20;;;;;;;17.41;72.19;99736.03;5044278;28;20033;-71
2023/03/24 01:00:09;;;;;;;0.10;0.10;;;;;;;17.74;71.11;99728.69;5035065;28;20037;-71
2023/03/24 01:02:35;;;;;;;0.20;0.20;;;;;;;16.76;74.00;99718.84;5036900;28;20518;-71
2023/03/24 01:05:01;;;;;;;0.20;0.20;;;;;;;17.83;71.81;99719.53;5043083;28;20033;-70
2023/03/24 01:07:28;;;;;;;0.10;0.10;;;;;;;17.19;74.12;99714.91;5049041;28;20029;-71
2023/03/24 01:09:58;;;;;;;0.15;0.15;;;;;;;18.10;70.23;99705.19;5042177;28;20033;-69
2023/03/24 01:12:38;;;;;;;0.30;0.30;;;;;;;18.47;68.78;99704.16;5042613;28;20111;-69
2023/03/24 01:15:10;;;;;;;0.30;0.30;;;;;;;17.89;70.97;99698.50;5048046;28;20465;-72
2023/03/24 01:17:35;;;;;;;0.20;0.20;;;;;;;17.24;73.36;99695.00;5044140;28;20033;-69
2023/03/24 01:20:06;;;;;;;0.10;0.10;;;;;;;18.14;69.60;99706.19;5049010;28;20397;-71
2023/03/24 01:22:36;;;;;;;0.20;0.20;;;;;;;17.63;71.26;99705.53;5038495;28;20045;-69
2023/03/24 01:25:03;;;;;;;0.10;0.10;;;;;;;17.85;71.20;99694.78;5043358;28;20044;-69
2023/03/24 01:27:29;;;;;;;0.20;0.20;;;;;;;18.36;69.66;99695.38;5048198;28;20045;-71
2023/03/24 01:30:00;;;;;;;0.20;0.20;;;;;;;18.17;70.22;99681.91;5031354;28;20040;-70
2023/03/24 01:32:27;;;;;;;0.10;0.10;;;;;;;18.05;70.02;99678.88;5047000;28;20033;-69
2023/03/24 01:34:52;;;;;;;0.20;0.20;;;;;;;18.09;70.42;99679.09;5038093;28;20033;-71
2023/03/24 01:37:18;;;;;;;0.20;0.20;;;;;;;17.89;70.91;99663.97;5036381;28;20025;-69
2023/03/24 01:39:43;;;;;;;0.30;0.30;;;;;;;17.81;70.74;99663.88;5036294;28;20049;-69
2023/03/24 01:42:17;;;;;;;0.20;0.20;;;;;;;18.28;69.70;99661.53;5031809;28;20037;-71
2023/03/24 01:44:46;;;;;;;0.20;0.20;;;;;;;18.53;68.84;99633.03;5035773;28;20116;-72
2023/03/24 01:47:12;;;;;;;0.10;0.10;;;;;;;17.59;72.44;99661.84;5041406;28;20044;-69
2023/03/24 01:49:44;;;;;;;0.20;0.20;;;;;;;17.74;72.15;99653.41;5044142;28;20021;-70
2023/03/24 01:52:17;;;;;;;0.22;0.22;;;;;;;17.56;72.60;99654.28;5042328;28;20048;-69
2023/03/24 01:54:47;;;;;;;0.17;0.17;;;;;;;17.76;71.50;99651.19;5045103;28;20401;-70
2023/03/24 01:57:32;;;;;;;0.10;0.10;;;;;;;18.22;69.86;99637.50;5021459;28;20033;-70
2023/03/24 02:00:03;;;;;;;0.10;0.10;;;;;;;17.30;72.72;99637.59;5041754;28;20037;-69
2023/03/24 02:02:34;;;;;;;0.10;0.10;;;;;;;18.35;70.04;99623.88;5039815;28;20029;-69
2023/03/24 02:05:04;;;;;;;0.20;0.20;;;;;;;18.13;69.49;99631.16;5040498;28;20033;-70
2023/03/24 02:07:38;;;;;;;0.20;0.20;;;;;;;17.67;72.89;99642.13;5033585;28;20065;-70
2023/03/24 02:10:12;;;;;;;0.15;0.15;;;;;;;17.46;73.48;99638.16;5046506;28;20038;-70
2023/03/24 02:12:38;;;;;;;0.10;0.10;;;;;;;17.90;70.60;99633.00;5048387;28;20213;-70
2023/03/24 02:15:04;;;;;;;0.10;0.10;;;;;;;17.50;73.25;99625.59;5044862;28;20033;-71
2023/03/24 02:17:43;;;;;;;0.15;0.15;;;;;;;17.50;73.24;99606.59;5039763;28;20506;-70
2023/03/24 02:20:27;;;;;;;0.20;0.20;;;;;;;18.09;71.35;99617.34;5046388;28;20125;-71
2023/03/24 02:23:14;;;;;;;0.20;0.20;;;;;;;17.93;71.77;99612.53;5043237;28;20440;-71
2023/03/24 02:26:08;;;;;;;0.10;0.10;;;;;;;18.90;68.56;99608.19;5046360;28;20079;-71
2023/03/24 02:28:40;;;;;;;0.10;0.10;;;;;;;18.54;69.10;99609.31;4970874;28;20043;-70
2023/03/24 02:31:41;;;;;;;0.10;0.10;;;;;;;17.83;72.09;99599.13;4970999;28;20023;-69
2023/03/24 02:34:10;;;;;;;0.10;0.10;;;;;;;17.87;72.20;99600.97;4932145;29;20184;-70
2023/03/24 02:37:01;;;;;;;0.20;0.20;;;;;;;18.12;71.18;99594.19;4932170;29;20071;-71
2023/03/24 02:39:32;;;;;;;0.13;0.13;;;;;;;18.05;72.08;99594.59;4931753;29;20419;-70
2023/03/24 02:42:04;;;;;;;0.20;0.20;;;;;;;17.57;72.94;99588.00;4931745;29;20036;-71
2023/03/24 02:44:50;;;;;;;0.20;0.20;;;;;;;18.58;70.22;99580.38;4932097;29;20415;-70
2023/03/24 02:47:39;;;;;;;0.10;0.10;;;;;;;18.72;69.69;99587.41;4932141;29;20104;-71
2023/03/24 02:50:15;;;;;;;0.20;0.20;;;;;;;18.27;70.74;99581.06;4925467;29;20040;-70
2023/03/24 02:53:14;;;;;;;0.20;0.20;;;;;;;17.96;73.21;99587.47;4931970;29;20392;-70
2023/03/24 02:55:48;;;;;;;0.20;0.20;;;;;;;17.92;73.07;99591.91;4859535;29;20045;-70
2023/03/24 02:58:20;;;;;;;0.10;0.10;;;;;;;18.39;71.44;99573.19;4875631;29;20137;-71
2023/03/24 03:00:51;;;;;;;0.20;0.20;;;;;;;18.01;71.75;99603.66;4874769;29;20557;-70
2023/03/24 03:03:27;;;;;;;;;;;;;;;17.34;74.89;99595.19;4875553;29;20522;-69
2023/03/24 03:06:04;;;;;;;0.15;0.15;;;;;;;16.93;76.71;99612.47;4922249;29;19982;-70
2023/03/24 03:08:32;;;;;;;0.10;0.10;;;;;;;17.04;75.87;99630.22;4937907;29;20524;-71
2023/03/24 03:11:00;;;;;;;0.20;0.20;;;;;;;16.86;77.49;99607.44;4958555;28;20050;-68
2023/03/24 03:13:33;;;;;;;0.28;0.28;;;;;;;17.00;76.57;99621.03;4989601;28;20030;-70
2023/03/24 03:16:05;;;;;;;0.30;0.30;;;;;;;16.90;78.04;99660.00;4978308;28;20053;-69
2023/03/24 03:18:43;;;;;;;0.20;0.20;;;;;;;16.53;76.73;99668.94;4974321;28;20046;-69
2023/03/24 03:21:14;;;;;;;0.20;0.20;;;;;;;16.60;75.54;99645.00;4971767;28;20043;-70
2023/03/24 03:23:56;;;;;;;0.10;0.10;;;;;;;16.68;72.80;99654.38;4970579;28;20068;-69
2023/03/24 03:26:27;;;;;;;0.20;0.20;;;;;;;17.09;71.66;99660.78;4976839;28;20049;-69
2023/03/24 03:28:56;;;;;;;;;;;;;;;17.14;69.61;99662.63;4983547;28;20528;-70
2023/03/24 03:31:52;;;;;;;0.20;0.20;;;;;;;16.87;70.89;99676.06;4997576;28;20114;-70
2023/03/24 03:34:51;;;;;;;0.10;0.10;;;;;;;16.78;69.60;99694.94;4983580;28;20042;-68
2023/03/24 03:37:21;;;;;;;0.20;0.20;;;;;;;16.57;69.98;99704.44;4989019;28;20124;-70
2023/03/24 03:39:53;;;;;;;0.17;0.17;;;;;;;16.73;69.15;99696.91;4988484;28;20490;-70
2023/03/24 03:42:19;;;;;;;0.20;0.20;;;;;;;16.49;68.77;99699.69;4988658;28;20061;-70
2023/03/24 03:44:45;;;;;;;0.20;0.20;;;;;;;16.06;68.90;99711.56;4988487;28;20498;-69
2023/03/24 03:47:11;;;;;;;0.20;0.20;;;;;;;16.33;67.63;99742.38;4988779;28;20097;-69
2023/03/24 03:49:37;;;;;;;0.10;0.10;;;;;;;15.27;71.63;99734.47;4988773;28;20153;-72
2023/03/24 03:52:03;;;;;;;0.20;0.20;;;;;;;15.65;71.45;99749.09;4988788;28;20129;-70
2023/03/24 03:54:30;;;;;;;0.20;0.20;;;;;;;15.51;70.46;99729.16;4988447;28;20534;-70
2023/03/24 03:56:56;;;;;;;0.20;0.20;;;;;;;16.54;67.03;99732.97;4982679;28;20117;-69
2023/03/24 03:59:32;;;;;;;0.20;0.20;;;;;;;16.77;66.70;99738.59;4988566;28;20072;-70
2023/03/24 04:02:17;;;;;;;0.20;0.20;;;;;;;16.25;67.01;99743.06;4988403;28;20081;-69
2023/03/24 04:05:03;;;;;;;0.10;0.10;;;;;;;16.05;68.44;99778.50;4982430;28;20513;-69
2023/03/24 04:07:32;;;;;;;0.20;0.20;;;;;;;16.52;66.45;99762.28;4988953;28;20027;-70
2023/03/24 04:10:34;;;;;;;0.20;0.20;;;;;;;16.29;66.96;99781.22;4988950;28;20041;-70
2023/03/24 04:13:22;;;;;;;0.30;0.30;;;;;;;16.22;66.75;99770.72;5028802;28;20321;-69
2023/03/24 04:15:56;;;;;;;0.20;0.20;;;;;;;16.23;67.30;99785.09;5038085;28;20392;-69
2023/03/24 04:18:44;;;;;;;0.10;0.10;;;;;;;15.95;67.79;99821.97;5043000;28;20056;-69
2023/03/24 04:21:16;;;;;;;0.30;0.30;;;;;;;16.24;66.18;99808.38;5046113;28;20408;-70
2023/03/24 04:23:53;;;;;;;0.20;0.20;;;;;;;16.51;65.95;99824.94;5044395;28;20098;-69
2023/03/24 04:26:33;;;;;;;0.30;0.30;;;;;;;15.64;68.31;99818.72;5031758;28;20038;-69
2023/03/24 04:29:28;;;;;;;0.20;0.20;;;;;;;15.63;67.63;99827.91;5033779;28;20037;-69
2023/03/24 04:32:10;;;;;;;0.20;0.20;;;;;;;15.94;66.52;99804.06;5029624;28;20034;-69
2023/03/24 04:34:45;;;;;;;0.20;0.20;;;;;;;15.61;66.86;99840.94;5026780;28;20482;-70
2023/03/24 04:37:36;;;;;;;0.30;0.30;;;;;;;16.05;66.06;99829.19;5044164;28;20093;-70
2023/03/24 04:40:09;;;;;;;0.22;0.22;;;;;;;16.10;64.97;99845.38;5044069;28;20244;-70
2023/03/24 04:42:40;;;;;;;0.20;0.20;;;;;;;15.86;65.38;99834.50;5044412;28;20098;-69
2023/03/24 04:45:07;;;;;;;0.30;0.30;;;;;;;15.73;65.85;99837.84;5049644;28;20056;-70
2023/03/24 04:47:41;;;;;;;0.20;0.20;;;;;;;16.03;65.26;99837.59;5042992;28;20424;-69
2023/03/24 04:50:11;;;;;;;0.28;0.28;;;;;;;15.76;65.43;99845.44;5042609;28;20115;-69
2023/03/24 04:52:38;;;;;;;0.17;0.17;;;;;;;15.73;65.89;99846.81;5043555;28;20021;-69
2023/03/24 04:55:42;;;;;;;0.20;0.20;;;;;;;15.77;66.10;99861.41;5032885;28;20026;-69
2023/03/24 04:58:07;;;;;;;0.20;0.20;;;;;;;15.46;66.73;99861.88;5023267;28;20045;-70
2023/03/24 05:00:35;;;;;;;0.10;0.10;;;;;;;15.69;65.44;99872.00;5027237;28;20398;-69
2023/03/24 05:03:01;;;;;;;0.20;0.20;;;;;;;15.78;65.47;99864.91;5037149;28;20037;-69
2023/03/24 05:05:27;;;;;;;0.20;0.20;;;;;;;15.19;66.92;99869.59;5034496;28;20489;-70
2023/03/24 05:07:53;;;;;;;0.20;0.20;;;;;;;16.39;63.97;99876.03;5036807;28;20032;-69
2023/03/24 05:10:19;;;;;;;0.20;0.20;;;;;;;16.28;64.14;99883.44;5047906;28;20500;-69
2023/03/24 05:12:44;;;;;;;0.20;0.20;;;;;;;16.04;64.88;99876.38;5044814;28;20037;-69
2023/03/24 05:15:10;;;;;;;0.30;0.30;;;;;;;15.40;66.29;99887.34;5042661;28;20033;-68
2023/03/24 05:17:36;;;;;;;0.10;0.10;;;;;;;15.75;65.37;99887.13;5042717;28;20112;-70
2023/03/24 05:20:01;;;;;;;0.10;0.10;;;;;;;15.65;66.23;99889.91;5043153;28;20056;-69
2023/03/24 05:22:27;;;;;;;0.20;0.20;;;;;;;15.61;65.47;99889.69;5044671;28;20040;-69
2023/03/24 05:24:52;;;;;;;0.13;0.13;;;;;;;16.08;64.53;99883.63;5038543;28;20040;-69
2023/03/24 05:27:18;;;;;;;0.20;0.20;;;;;;;16.15;64.20;99894.16;5042285;28;20041;-71
2023/03/24 05:29:43;;;;;;;0.20;0.20;;;;;;;15.73;65.19;99894.75;5042597;28;20497;-69
2023/03/24 05:32:09;;;;;;;0.20;0.20;;;;;;;15.55;65.61;99904.34;5041275;28;20045;-69
2023/03/24 05:34:34;;;;;;;0.20;0.20;;;;;;;16.21;63.72;99906.56;5039877;28;20079;-69
2023/03/24 05:36:59;;;;;;;0.30;0.30;;;;;;;15.22;66.97;99905.03;5041748;28;20028;-70
2023/03/24 05:39:25;;;;;;;0.20;0.20;;;;;;;15.97;64.90;99917.31;5040872;28;20037;-69
2023/03/24 05:41:50;;;;;;;0.10;0.10;;;;;;;15.67;65.82;99917.53;5042461;28;20069;-69
2023/03/24 05:44:16;;;;;;;0.20;0.20;;;;;;;14.79;68.45;99921.97;5046143;28;20091;-70
2023/03/24 05:46:41;;;;;;;0.15;0.15;;;;;;;14.88;68.38;99931.13;5051884;28;20056;-70
2023/03/24 05:49:07;;;;;;;0.17;0.17;;;;;;;15.03;67.70;99946.53;5046541;28;20033;-70
2023/03/24 05:51:32;;;;;;;0.30;0.30;;;;;;;14.94;68.04;99924.63;5045554;28;20131;-70
2023/03/24 05:53:58;;;;;;;0.30;0.30;;;;;;;15.17;67.56;99928.63;5048279;28;20129;-69
2023/03/24 05:56:23;;;;;;;0.30;0.30;;;;;;;15.39;66.47;99937.97;5044633;28;20033;-69
2023/03/24 05:58:50;;;;;;;0.22;0.22;;;;;;;15.26;66.93;99952.13;5051586;28;20017;-71
2023/03/24 06:01:17;;;;;;;0.20;0.20;;;;;;;15.61;65.51;99951.97;5039613;28;20220;-70
2023/03/24 06:03:42;;;;;;;0.20;0.20;;;;;;;15.28;66.58;99962.66;5043942;28;20032;-70
2023/03/24 06:06:13;;;;;;;0.32;0.32;;;;;;;15.62;65.34;99966.31;5051359;28;20519;-69
2023/03/24 06:08:39;;;;;;;0.20;0.20;;;;;;;15.15;66.65;99972.19;5033445;28;20367;-72
2023/03/24 06:11:05;;;;;;;0.30;0.30;;;;;;;15.21;65.73;99971.09;5038334;28;20290;-70
2023/03/24 06:13:31;;;;;;;0.28;0.28;;;;;;;15.69;64.41;99958.69;5051949;28;20029;-69
2023/03/24 06:15:57;;;;;;;0.20;0.20;;;;;;;15.19;65.68;99967.03;5045729;28;20489;-70
2023/03/24 06:18:26;;;;;;;0.20;0.20;;;;;;;15.51;65.13;99972.88;5048069;28;20033;-69
2023/03/24 06:20:55;;;;;;;0.10;0.10;;;;;;;15.44;65.54;99981.31;5045012;28;20044;-70
2023/03/24 06:23:22;;;;;;;0.17;0.17;;;;;;;15.00;66.13;99979.56;5039275;28;20048;-70
2023/03/24 06:25:49;;;;;;;0.20;0.20;;;;;;;15.65;64.48;99979.28;5047752;28;20025;-70
2023/03/24 06:28:15;;;;;;;0.10;0.10;;;;;;;15.51;65.05;99981.00;5050224;28;20033;-70
2023/03/24 06:30:43;;;;;;;0.20;0.20;;;;;;;15.64;64.35;99975.81;5035359;28;20026;-71
2023/03/24 06:33:10;;;;;;;0.20;0.20;;;;;;;15.27;65.08;99977.28;5043194;28;20117;-71
2023/03/24 06:35:35;;;;;;;0.20;0.20;;;;;;;15.49;64.69;99978.56;5028814;28;20041;-70
2023/03/24 06:38:01;;;;;;;0.20;0.20;;;;;;;15.41;64.97;99983.75;5042990;28;20103;-72
2023/03/24 06:40:26;;;;;;;0.30;0.30;;;;;;;15.64;64.56;99978.50;5031771;28;20052;-69
2023/03/24 06:42:52;;;;;;;0.20;0.20;;;;;;;15.41;65.06;99989.94;5047791;28;20033;-70
2023/03/24 06:45:17;;;;;;;0.20;0.20;;;;;;;15.27;65.52;99988.13;5043735;28;20036;-69
2023/03/24 06:47:42;;;;;;;0.20;0.20;;;;;;;15.59;64.16;99992.06;5050946;28;20098;-68
2023/03/24 06:50:09;;;;;;;0.20;0.20;;;;;;;15.68;64.04;99990.38;5046979;28;20045;-69
2023/03/24 06:52:35;;;;;;;0.25;0.25;;;;;;;16.04;63.01;100003.75;5047270;28;20029;-71
2023/03/24 06:55:02;;;;;;;0.20;0.20;;;;;;;15.48;65.21;100014.06;5051614;28;20543;-69
2023/03/24 06:57:28;;;;;;;0.20;0.20;;;;;;;15.85;63.87;100011.69;5039052;28;20436;-70
2023/03/24 06:59:53;;;;;;;0.20;0.20;;;;;;;15.18;66.09;100008.69;5036807;28;20041;-68
2023/03/24 07:02:19;;;;;;;0.20;0.20;;;;;;;15.35;65.99;100020.03;5044855;28;20040;-70
2023/03/24 07:04:44;;;;;;;0.20;0.20;;;;;;;15.54;65.39;100012.94;5053815;28;20021;-69
2023/03/24 07:07:11;;;;;;;0.30;0.30;;;;;;;15.45;65.58;100025.44;5053803;28;20024;-71
2023/03/24 07:09:37;;;;;;;0.32;0.32;;;;;;;15.91;63.97;100023.31;5034247;28;20406;-70
2023/03/24 07:12:04;;;;;;;0.20;0.20;;;;;;;15.43;65.35;100028.41;5048156;28;20037;-70
2023/03/24 07:14:30;;;;;;;0.20;0.20;;;;;;;15.27;66.00;100031.44;5038056;28;20057;-71
2023/03/24 07:16:55;;;;;;;0.20;0.20;;;;;;;15.38;65.68;100043.84;5044824;28;20068;-68
2023/03/24 07:19:21;;;;;;;0.30;0.30;;;;;;;15.44;65.88;100040.06;5045851;28;20017;-69
2023/03/24 07:21:48;;;;;;;0.22;0.22;;;;;;;15.81;64.21;100038.53;5048289;28;20044;-67
2023/03/24 07:24:17;;;;;;;0.25;0.25;;;;;;;15.63;64.81;100050.00;5053902;28;20040;-70
2023/03/24 07:26:43;;;;;;;0.47;0.47;;;;;;;15.84;64.64;100053.44;5044428;28;20041;-69
2023/03/24 07:29:09;;;;;;;0.20;0.20;;;;;;;15.82;64.52;100061.81;5057261;28;20032;-70
2023/03/24 07:31:36;;;;;;;0.20;0.20;;;;;;;16.03;64.24;100059.00;5052299;28;20039;-70
2023/03/24 07:34:06;;;;;;;0.20;0.20;;;;;;;15.64;64.43;100067.88;5043476;28;20024;-70
2023/03/24 07:36:31;;;;;;;0.28;0.28;;;;;;;15.84;64.39;100073.19;5033019;28;20025;-70
2023/03/24 07:38:59;;;;;;;0.20;0.20;;;;;;;16.26;62.66;100069.16;5045323;28;20041;-69
2023/03/24 07:41:26;;;;;;;0.20;0.20;;;;;;;16.01;63.16;100069.31;5038782;28;20181;-70
2023/03/24 07:43:51;;;;;;;0.30;0.30;;;;;;;15.78;64.24;100081.66;5030658;28;20376;-70
2023/03/24 07:46:17;;;;;;;0.20;0.20;;;;;;;16.66;61.30;100079.78;5025440;28;20034;-69
2023/03/24 07:48:42;;;;;;;0.20;0.20;;;;;;;16.12;62.56;100063.56;5029392;28;20034;-70
2023/03/24 07:51:07;;;;;;;0.30;0.30;;;;;;;16.21;62.19;100066.50;5021420;28;20505;-70
2023/03/24 07:53:33;;;;;;;0.20;0.20;;;;;;;16.52;61.40;100076.06;5041366;28;20044;-69
2023/03/24 07:55:58;;;;;;;0.30;0.30;;;;;;;16.42;61.17;100078.81;5050462;28;20041;-69
2023/03/24 07:58:24;;;;;;;0.20;0.20;;;;;;;16.12;61.84;100066.28;5047477;28;20492;-69
2023/03/24 08:00:49;;;;;;;0.30;0.30;;;;;;;16.21;61.68;100070.03;5056698;28;20036;-69
2023/03/24 08:03:15;;;;;;;0.30;0.30;;;;;;;15.90;62.49;100070.47;5060794;28;20113;-70
2023/03/24 08:05:40;;;;;;;0.20;0.20;;;;;;;15.93;60.98;100083.47;5061446;28;20080;-69
2023/03/24 08:08:06;;;;;;;0.28;0.28;;;;;;;16.24;61.27;100087.63;5055639;28;20334;-69
2023/03/24 08:10:31;;;;;;;0.30;0.30;;;;;;;16.40;60.77;100083.72;5057568;28;20082;-70
2023/03/24 08:12:58;;;;;;;0.20;0.20;;;;;;;16.07;61.06;100077.16;5054228;28;20033;-71
2023/03/24 08:15:24;;;;;;;0.20;0.20;;;;;;;15.97;60.51;100087.22;5056014;28;20037;-68
2023/03/24 08:17:49;;;;;;;0.10;0.10;;;;;;;16.63;59.03;100088.47;5058486;28;20040;-70
2023/03/24 08:20:15;;;;;;;0.20;0.20;;;;;;;15.98;60.11;100100.50;5048486;28;20045;-70
2023/03/24 08:22:43;;;;;;;0.20;0.20;;;;;;;16.09;59.23;100099.38;5048669;28;20107;-69
2023/03/24 08:25:12;;;;;;;0.20;0.20;;;;;;;15.81;58.95;100091.91;5049976;28;20025;-68
2023/03/24 08:27:43;;;;;;;0.20;0.20;;;;;;;16.67;56.41;100097.66;5048638;28;20106;-70
2023/03/24 08:30:12;;;;;;;0.28;0.28;;;;;;;16.24;58.02;100101.16;5048699;28;20040;-69
2023/03/24 08:32:50;;;;;;;0.30;0.30;;;;;;;16.20;58.06;100100.09;5042854;28;20393;-71
2023/03/24 08:35:18;;;;;;;0.20;0.20;;;;;;;16.15;58.16;100102.88;5043582;28;20044;-70
2023/03/24 08:37:44;;;;;;;0.20;0.20;;;;;;;16.55;57.85;100108.06;5048709;28;20033;-69
2023/03/24 08:40:13;;;;;;;0.10;0.10;;;;;;;16.16;58.13;100116.13;5042914;28;20071;-69
2023/03/24 08:42:40;;;;;;;0.28;0.28;;;;;;;16.15;58.39;100119.13;5030574;28;20064;-68
2023/03/24 08:45:08;;;;;;;0.20;0.20;;;;;;;15.89;59.15;100123.03;5048884;28;20032;-69
2023/03/24 08:47:33;;;;;;;0.22;0.22;;;;;;;15.62;57.62;100115.28;5042233;28;20045;-70
2023/03/24 08:49:59;;;;;;;0.15;0.15;;;;;;;15.54;58.87;100123.97;5044627;28;20048;-69
2023/03/24 08:52:25;;;;;;;0.20;0.20;;;;;;;16.16;56.55;100132.41;5048290;28;20632;-68
2023/03/24 08:54:51;;;;;;;0.30;0.30;;;;;;;16.00;57.78;100138.19;5036751;28;20033;-69
2023/03/24 08:57:17;;;;;;;0.20;0.20;;;;;;;15.93;56.64;100130.34;5044778;28;20052;-68
2023/03/24 08:59:42;;;;;;;0.20;0.20;;;;;;;16.16;57.44;100140.53;5042082;28;20042;-69
2023/03/24 09:02:10;;;;;;;0.20;0.20;;;;;;;16.24;57.05;100139.94;5048035;28;20051;-69
2023/03/24 09:04:36;;;;;;;0.20;0.20;;;;;;;16.74;55.72;100136.16;5026572;28;20428;-68
2023/03/24 09:07:02;;;;;;;0.17;0.17;;;;;;;16.32;57.00;100141.25;5042080;28;20029;-68
2023/03/24 09:09:28;;;;;;;0.30;0.30;;;;;;;17.22;54.29;100140.63;5038498;28;20393;-70
2023/03/24 09:11:53;;;;;;;0.20;0.20;;;;;;;17.31;54.59;100141.63;5052890;28;20060;-70
2023/03/24 09:14:21;;;;;;;0.20;0.20;;;;;;;16.75;54.75;100148.59;5044027;28;20029;-70
2023/03/24 09:16:47;;;;;;;0.20;0.20;;;;;;;16.65;54.91;100146.78;5042568;28;20028;-69
2023/03/24 09:19:13;;;;;;;0.20;0.20;;;;;;;16.70;53.32;100154.09;5044326;28;20181;-70
2023/03/24 09:21:40;;;;;;;0.20;0.20;;;;;;;16.74;53.16;100146.19;5052859;28;20131;-69
2023/03/24 09:24:06;;;;;;;0.20;0.20;;;;;;;16.79;55.30;100148.84;5046135;28;20033;-69
2023/03/24 09:26:32;;;;;;;0.20;0.20;;;;;;;16.87;53.32;100164.53;5043844;28;20041;-70
2023/03/24 09:28:58;;;;;;;0.20;0.20;;;;;;;17.17;53.03;100158.88;5052367;28;20033;-69
2023/03/24 09:31:23;;;;;;;0.20;0.20;;;;;;;16.66;54.23;100167.41;5046602;28;20090;-68
2023/03/24 09:33:49;;;;;;;0.10;0.10;;;;;;;16.78;53.10;100160.81;5041577;28;20112;-69
2023/03/24 09:36:15;;;;;;;0.20;0.20;;;;;;;17.32;52.40;100172.28;5046617;28;20036;-69
2023/03/24 09:38:40;;;;;;;0.20;0.20;;;;;;;16.75;52.84;100170.31;5048745;28;20041;-70
2023/03/24 09:41:17;;;;;;;0.20;0.20;;;;;;;16.52;53.66;100171.00;5051542;28;20033;-69
2023/03/24 09:43:55;;;;;;;0.10;0.10;;;;;;;16.91;52.60;100174.53;5043394;28;20031;-69
2023/03/24 09:46:32;;;;;;;0.30;0.30;;;;;;;17.53;51.94;100173.78;5049622;28;20024;-69
2023/03/24 09:48:57;;;;;;;0.20;0.20;;;;;;;17.08;50.39;100171.44;5050715;28;20021;-68
2023/03/24 09:51:28;;;;;;;0.20;0.20;;;;;;;18.18;50.24;100177.66;5045266;28;20075;-70
2023/03/24 09:53:59;;;;;;;;;;;;;;;17.71;51.33;100181.19;5051892;28;20296;-68
2023/03/24 09:56:25;;;;;;;0.20;0.20;;;;;;;16.78;51.84;100185.22;5043043;28;19917;-68
2023/03/24 09:59:16;;;;;;;0.30;0.30;;;;;;;17.79;50.46;100183.25;5051535;28;20439;-69
2023/03/24 10:01:42;;;;;;;0.20;0.20;;;;;;;17.02;51.34;100184.22;5048471;28;20046;-70
2023/03/24 10:04:18;;;;;;;0.22;0.22;;;;;;;17.54;51.63;100189.78;5051986;28;20032;-70
2023/03/24 10:06:44;;;;;;;0.20;0.20;;;;;;;16.80;50.69;100204.75;5050238;28;20117;-68
2023/03/24 10:09:16;;;;;;;0.20;0.20;;;;;;;16.52;51.60;100193.53;5045944;28;20061;-70
2023/03/24 10:11:52;;;;;;;0.20;0.20;;;;;;;17.37;49.71;100185.84;5044930;28;20449;-69
2023/03/24 10:14:26;;;;;;;0.20;0.20;;;;;;;17.12;48.91;100181.44;5045020;28;20512;-70
2023/03/24 10:16:54;;;;;;;0.20;0.20;;;;;;;17.33;48.45;100188.34;5046416;28;20079;-68
2023/03/24 10:19:22;;;;;;;0.20;0.20;;;;;;;17.16;49.71;100184.41;5024480;28;20037;-70
2023/03/24 10:22:01;;;;;;;0.20;0.20;;;;;;;17.21;49.08;100187.06;5046238;28;20497;-68
2023/03/24 10:24:43;;;;;;;0.20;0.20;;;;;;;17.53;49.83;100188.16;5045431;28;20033;-69
2023/03/24 10:27:31;;;;;;;0.20;0.20;;;;;;;18.28;47.77;100183.75;5045222;28;20067;-70
2023/03/24 10:30:05;;;;;;;0.13;0.13;;;;;;;16.92;48.38;100197.06;5051332;28;20573;-70
2023/03/24 10:32:34;;;;;;;0.13;0.13;;;;;;;17.39;48.55;100198.03;5038709;28;20037;-70
2023/03/24 10:35:08;;;;;;;0.15;0.15;;;;;;;17.60;48.43;100201.41;5044308;28;20060;-69
2023/03/24 10:37:35;;;;;;;0.10;0.10;;;;;;;18.39;46.15;100190.72;5044804;28;20061;-69
2023/03/24 10:40:01;;;;;;;0.20;0.20;;;;;;;18.91;45.05;100184.25;5051163;28;20455;-70
2023/03/24 10:42:31;;;;;;;0.20;0.20;;;;;;;18.59;45.43;100184.22;5050773;28;20037;-70
2023/03/24 10:44:57;;;;;;;0.10;0.10;;;;;;;18.54;45.17;100197.06;5050723;28;20481;-69
2023/03/24 10:47:28;;;;;;;0.20;0.20;;;;;;;18.64;45.38;100184.13;5050568;28;20119;-70
2023/03/24 10:49:58;;;;;;;0.20;0.20;;;;;;;17.68;47.48;100189.09;5043616;28;20515;-69
2023/03/24 10:52:24;;;;;;;0.20;0.20;;;;;;;18.23;46.28;100191.19;5050650;28;20098;-68
2023/03/24 10:55:02;;;;;;;0.10;0.10;;;;;;;17.93;45.96;100197.78;5044027;28;20041;-69
2023/03/24 10:57:28;;;;;;;0.10;0.10;;;;;;;18.82;45.16;100202.38;5045618;28;20045;-71
2023/03/24 10:59:58;;;;;;;0.20;0.20;;;;;;;18.36;44.10;100187.75;5050670;28;20040;-68
2023/03/24 11:02:31;;;;;;;0.20;0.20;;;;;;;18.66;45.23;100202.88;5049890;28;20041;-68
2023/03/24 11:05:01;;;;;;;0.20;0.20;;;;;;;18.08;43.90;100202.25;5032806;28;20733;-63
2023/03/24 11:07:37;;;;;;;0.10;0.10;;;;;;;18.46;44.66;100205.88;5044408;28;20094;-64
2023/03/24 11:10:09;;;;;;;0.20;0.20;;;;;;;17.61;47.36;100191.34;5051128;28;20509;-64
2023/03/24 11:12:37;;;;;;;0.20;0.20;;;;;;;18.31;46.59;100187.81;5050336;28;20029;-64
2023/03/24 11:15:19;;;;;;;0.20;0.20;;;;;;;18.09;46.09;100192.97;5025800;28;20503;-64
2023/03/24 11:17:46;;;;;;;0.20;0.20;;;;;;;17.64;45.71;100197.03;5050294;28;20110;-64
2023/03/24 11:20:24;;;;;;;0.20;0.20;;;;;;;17.87;45.23;100215.25;5050182;28;20045;-64
2023/03/24 11:23:05;;;;;;;0.22;0.22;;;;;;;18.30;43.27;100205.22;5044766;28;20089;-64
2023/03/24 11:25:34;;;;;;;0.20;0.20;;;;;;;18.35;43.35;100210.63;5046937;28;20052;-65
2023/03/24 11:28:04;;;;;;;0.10;0.10;;;;;;;17.43;44.47;100217.31;5049394;28;20029;-65
2023/03/24 11:30:42;;;;;;;0.20;0.20;;;;;;;18.26;43.27;100223.22;5051296;28;20043;-65
2023/03/24 11:33:16;;;;;;;0.30;0.30;;;;;;;18.21;44.01;100221.41;5051208;28;20051;-64
2023/03/24 11:35:42;;;;;;;0.20;0.20;;;;;;;17.90;43.82;100209.25;5033581;28;20038;-64
2023/03/24 11:38:07;;;;;;;0.30;0.30;;;;;;;17.90;43.29;100208.44;5035039;28;20098;-65
2023/03/24 11:40:33;;;;;;;0.20;0.20;;;;;;;17.71;44.77;100202.91;5051303;28;20029;-62
2023/03/24 11:43:01;;;;;;;0.30;0.30;;;;;;;18.59;43.99;100221.50;5050506;28;20121;-70
2023/03/24 11:45:39;;;;;;;0.10;0.10;;;;;;;18.32;45.54;100217.44;5052510;28;20246;-69